createdAt,value
2019-01-25T00:00:59.284Z,65.75
2019-01-25T00:03:28.657Z,76.95
2019-01-25T00:05:58.008Z,65.87
2019-01-25T00:08:27.373Z,83.65
2019-01-25T00:10:56.744Z,64.07
2019-01-25T00:13:26.110Z,66.60
2019-01-25T00:15:55.465Z,61.80
2019-01-25T00:18:24.823Z,66.25
2019-01-25T00:20:54.186Z,67.40
2019-01-25T00:23:23.542Z,68.62
2019-01-25T00:25:52.893Z,57.60
2019-01-25T00:28:22.280Z,31.12
2019-01-25T00:30:51.636Z,65.22
2019-01-25T00:33:20.992Z,54.25
2019-01-25T00:35:50.435Z,49.98
2019-01-25T00:38:19.790Z,68.50
2019-01-25T00:40:49.182Z,67.62
2019-01-25T00:43:18.660Z,57.13
2019-01-25T00:45:48.036Z,54.05
2019-01-25T00:48:17.392Z,61.37
2019-01-25T00:50:46.744Z,58.15
2019-01-25T00:53:16.097Z,56.83
2019-01-25T00:55:45.581Z,65.85
2019-01-25T00:58:14.984Z,54.60
2019-01-25T01:00:44.346Z,57.10
2019-01-25T01:03:13.708Z,55.12
2019-01-25T01:05:43.055Z,52.80
2019-01-25T01:08:12.430Z,68.85
2019-01-25T01:10:41.788Z,63.28
2019-01-25T01:13:11.182Z,83.50
2019-01-25T01:15:40.543Z,67.50
2019-01-25T01:18:09.897Z,62.10
2019-01-25T01:20:39.257Z,66.00
2019-01-25T01:23:08.626Z,67.97
2019-01-25T01:25:38.014Z,54.27
2019-01-25T01:28:07.356Z,61.53
2019-01-25T01:30:36.847Z,67.72
2019-01-25T01:33:06.353Z,59.42
2019-01-25T01:35:35.777Z,42.80
2019-01-25T01:38:05.333Z,82.47
2019-01-25T01:40:34.798Z,60.83
2019-01-25T01:43:04.348Z,66.07
2019-01-25T01:45:33.706Z,46.98
2019-01-25T01:48:03.088Z,53.87
2019-01-25T01:50:32.434Z,67.85
2019-01-25T01:53:01.814Z,62.43
2019-01-25T01:55:31.164Z,56.65
2019-01-25T01:58:00.564Z,51.37
2019-01-25T02:00:30.427Z,46.13
2019-01-25T02:02:59.804Z,67.27
2019-01-25T02:05:29.163Z,55.55
2019-01-25T02:07:58.637Z,58.58
2019-01-25T02:10:29.484Z,66.75
2019-01-25T02:12:59.139Z,65.20
2019-01-25T02:15:28.524Z,65.35
2019-01-25T02:17:57.886Z,29.12
2019-01-25T02:20:29.261Z,58.35
2019-01-25T02:22:58.722Z,62.43
2019-01-25T02:25:28.203Z,56.02
2019-01-25T02:27:57.548Z,72.90
2019-01-25T02:30:27.748Z,57.15
2019-01-25T02:32:57.098Z,64.05
2019-01-25T02:35:26.455Z,45.60
2019-01-25T02:37:55.895Z,62.23
2019-01-25T02:40:26.285Z,59.08
2019-01-25T02:42:56.174Z,53.87
2019-01-25T02:45:25.770Z,57.95
2019-01-25T02:47:55.157Z,55.58
2019-01-25T02:50:24.510Z,26.23
2019-01-25T02:52:53.878Z,65.57
2019-01-25T02:55:23.314Z,58.00
2019-01-25T02:57:52.669Z,55.28
2019-01-25T03:00:24.013Z,53.23
2019-01-25T03:02:54.164Z,38.20
2019-01-25T03:05:24.438Z,57.35
2019-01-25T03:07:54.047Z,66.00
2019-01-25T03:10:28.600Z,68.00
2019-01-25T03:12:54.774Z,62.62
2019-01-25T03:15:26.049Z,59.42
2019-01-25T03:17:55.537Z,62.67
2019-01-25T03:20:25.096Z,61.15
2019-01-25T03:22:54.530Z,68.20
2019-01-25T03:25:25.923Z,50.80
2019-01-25T03:27:55.314Z,64.30
2019-01-25T03:30:25.756Z,71.95
2019-01-25T03:32:55.302Z,65.52
2019-01-25T03:35:26.233Z,55.48
2019-01-25T03:37:55.697Z,60.15
2019-01-25T03:40:27.149Z,62.53
2019-01-25T03:42:57.270Z,61.13
2019-01-25T03:45:28.318Z,63.50
2019-01-25T03:47:57.814Z,42.05
2019-01-25T03:50:29.193Z,66.50
2019-01-25T03:52:58.621Z,52.90
2019-01-25T03:55:28.669Z,59.80
2019-01-25T03:57:58.173Z,46.40
2019-01-25T04:00:29.006Z,56.85
2019-01-25T04:02:58.678Z,50.52
2019-01-25T04:05:28.201Z,55.55
2019-01-25T04:07:57.580Z,53.28
2019-01-25T04:10:28.414Z,57.95
2019-01-25T04:12:57.852Z,58.87
2019-01-25T04:15:32.459Z,61.73
2019-01-25T04:18:01.820Z,56.73
2019-01-25T04:20:31.509Z,63.83
2019-01-25T04:23:00.933Z,57.53
2019-01-25T04:25:30.297Z,62.62
2019-01-25T04:27:59.773Z,56.33
2019-01-25T04:30:30.479Z,71.00
2019-01-25T04:33:00.724Z,44.38
2019-01-25T04:35:30.141Z,53.65
2019-01-25T04:37:59.506Z,45.60
2019-01-25T04:40:28.952Z,55.33
2019-01-25T04:42:58.321Z,57.88
2019-01-25T04:45:27.669Z,51.28
2019-01-25T04:47:57.050Z,55.43
2019-01-25T04:50:26.946Z,36.45
2019-01-25T04:52:56.702Z,57.33
2019-01-25T04:55:30.659Z,57.62
2019-01-25T04:58:16.633Z,50.33
2019-01-25T05:00:46.906Z,64.50
2019-01-25T05:03:16.677Z,53.40
2019-01-25T05:05:46.055Z,61.50
2019-01-25T05:08:17.476Z,59.70
2019-01-25T05:10:46.902Z,57.35
2019-01-25T05:13:16.282Z,52.40
2019-01-25T05:15:45.645Z,59.38
2019-01-25T05:18:15.239Z,48.30
2019-01-25T05:20:44.616Z,57.43
2019-01-25T05:23:13.960Z,55.48
2019-01-25T05:25:43.320Z,64.03
2019-01-25T05:28:14.524Z,59.53
2019-01-25T05:30:55.601Z,56.48
2019-01-25T05:33:24.957Z,48.28
2019-01-25T05:35:54.352Z,56.30
2019-01-25T05:38:23.708Z,58.90
2019-01-25T05:40:53.181Z,55.28
2019-01-25T05:43:22.583Z,69.15
2019-01-25T05:45:51.917Z,53.23
2019-01-25T05:48:23.625Z,61.85
2019-01-25T05:50:57.585Z,66.02
2019-01-25T05:53:26.931Z,74.00
2019-01-25T05:55:56.284Z,62.23
2019-01-25T05:58:25.715Z,56.02
2019-01-25T06:00:55.141Z,65.32
2019-01-25T06:03:24.437Z,64.53
2019-01-25T06:05:59.615Z,64.05
2019-01-25T06:08:32.767Z,59.40
2019-01-25T06:11:04.249Z,62.70
2019-01-25T06:13:33.592Z,58.70
2019-01-25T06:16:03.000Z,71.42
2019-01-25T06:18:32.444Z,62.20
2019-01-25T06:21:01.812Z,68.85
2019-01-25T06:23:31.161Z,65.70
2019-01-25T06:26:01.094Z,73.95
2019-01-25T06:28:30.467Z,67.80
2019-01-25T06:30:59.818Z,73.40
2019-01-25T06:33:29.202Z,68.28
2019-01-25T06:35:58.546Z,63.68
2019-01-25T06:38:27.905Z,71.37
2019-01-25T06:40:57.265Z,69.72
2019-01-25T06:43:26.611Z,65.57
2019-01-25T06:45:55.977Z,75.17
2019-01-25T06:48:25.400Z,61.53
2019-01-25T06:50:54.799Z,69.00
2019-01-25T06:53:24.164Z,65.42
2019-01-25T06:55:53.576Z,73.42
2019-01-25T06:58:48.050Z,62.83
2019-01-25T07:01:24.965Z,70.78
2019-01-25T07:03:54.437Z,86.63
2019-01-25T07:06:23.778Z,71.55
2019-01-25T07:08:53.128Z,99.40
2019-01-25T07:11:22.621Z,91.15
2019-01-25T07:13:51.970Z,67.37
2019-01-25T07:16:21.304Z,119.93
2019-01-25T07:18:50.677Z,67.25
2019-01-25T07:21:20.012Z,77.75
2019-01-25T07:23:49.483Z,68.33
2019-01-25T07:26:18.869Z,75.57
2019-01-25T07:28:48.237Z,71.37
2019-01-25T07:31:17.641Z,71.65
2019-01-25T07:33:46.964Z,74.25
2019-01-25T07:36:16.324Z,66.00
2019-01-25T07:38:45.741Z,66.50
2019-01-25T07:41:15.094Z,65.60
2019-01-25T07:43:44.445Z,80.55
2019-01-25T07:46:13.819Z,82.42
2019-01-25T07:48:43.146Z,82.85
2019-01-25T07:51:12.516Z,82.53
2019-01-25T07:53:41.850Z,77.58
2019-01-25T07:56:11.208Z,63.55
2019-01-25T07:58:40.567Z,78.50
2019-01-25T08:01:10.149Z,71.20
2019-01-25T08:03:39.538Z,71.50
2019-01-25T08:06:09.012Z,73.00
2019-01-25T08:08:38.362Z,70.95
2019-01-25T08:11:07.714Z,78.87
2019-01-25T08:13:37.118Z,77.85
2019-01-25T08:16:06.445Z,64.35
2019-01-25T08:18:35.850Z,72.37
2019-01-25T08:21:05.300Z,69.50
2019-01-25T08:23:34.638Z,84.05
2019-01-25T08:26:04.100Z,67.82
2019-01-25T08:28:33.466Z,68.07
2019-01-25T08:31:02.814Z,72.87
2019-01-25T08:33:32.185Z,81.12
2019-01-25T08:36:01.538Z,64.95
2019-01-25T08:38:30.905Z,74.62
2019-01-25T08:41:00.271Z,67.32
2019-01-25T08:43:29.660Z,67.75
2019-01-25T08:45:59.258Z,85.47
2019-01-25T08:48:29.217Z,77.35
2019-01-25T08:50:59.374Z,73.25
2019-01-25T08:53:28.761Z,84.60
2019-01-25T08:55:58.244Z,88.55
2019-01-25T08:58:27.677Z,69.65
2019-01-25T09:00:56.997Z,87.67
2019-01-25T09:03:26.366Z,78.55
2019-01-25T09:05:55.734Z,81.63
2019-01-25T09:08:25.102Z,73.52
2019-01-25T09:10:54.609Z,96.92
2019-01-25T09:13:23.973Z,87.97
2019-01-25T09:15:53.398Z,125.80
2019-01-25T09:18:22.858Z,92.12
2019-01-25T09:20:52.213Z,82.22
2019-01-25T09:23:21.595Z,86.75
2019-01-25T09:25:50.987Z,71.72
2019-01-25T09:28:20.329Z,49.63
2019-01-25T09:30:49.720Z,60.40
2019-01-25T09:33:19.078Z,58.45
2019-01-25T09:35:48.452Z,55.55
2019-01-25T09:38:17.795Z,63.28
2019-01-25T09:40:47.531Z,64.03
2019-01-25T09:43:16.885Z,59.67
2019-01-25T09:45:46.258Z,55.28
2019-01-25T09:48:15.662Z,57.20
2019-01-25T09:50:45.020Z,63.48
2019-01-25T09:53:16.035Z,57.35
2019-01-25T09:55:45.412Z,51.55
2019-01-25T09:58:16.555Z,60.60
2019-01-25T10:00:52.787Z,52.67
2019-01-25T10:03:22.198Z,47.13
2019-01-25T10:05:51.551Z,54.10
2019-01-25T10:08:20.909Z,52.43
2019-01-25T10:10:50.290Z,61.05
2019-01-25T10:13:19.727Z,56.75
2019-01-25T10:15:49.141Z,64.72
2019-01-25T10:18:18.505Z,54.75
2019-01-25T10:20:47.881Z,68.12
2019-01-25T10:23:17.237Z,62.43
2019-01-25T10:25:46.603Z,62.60
2019-01-25T10:28:16.075Z,69.45
2019-01-25T10:30:45.427Z,56.42
2019-01-25T10:33:14.799Z,57.35
2019-01-25T10:35:44.172Z,62.30
2019-01-25T10:38:13.513Z,52.75
2019-01-25T10:40:43.298Z,51.90
2019-01-25T10:43:12.728Z,53.55
2019-01-25T10:45:42.450Z,63.35
2019-01-25T10:48:11.814Z,60.03
2019-01-25T10:50:41.189Z,50.85
2019-01-25T10:53:10.624Z,57.20
2019-01-25T10:55:40.016Z,62.65
2019-01-25T10:58:09.820Z,51.23
2019-01-25T11:00:39.183Z,50.43
2019-01-25T11:03:08.560Z,48.23
2019-01-25T11:05:37.912Z,52.25
2019-01-25T11:08:07.286Z,54.95
2019-01-25T11:10:36.676Z,54.13
2019-01-25T11:13:06.061Z,48.65
2019-01-25T11:15:35.410Z,51.42
2019-01-25T11:18:05.604Z,45.63
2019-01-25T11:20:34.981Z,58.98
2019-01-25T11:23:04.450Z,52.53
2019-01-25T11:25:36.102Z,44.70
2019-01-25T11:28:05.839Z,43.58
2019-01-25T11:30:35.739Z,42.70
2019-01-25T11:33:05.573Z,42.70
2019-01-25T11:35:35.033Z,41.73
2019-01-25T11:38:04.810Z,45.43
2019-01-25T11:40:36.396Z,46.75
2019-01-25T11:43:08.745Z,41.68
2019-01-25T11:45:36.903Z,44.75
2019-01-25T11:48:09.719Z,49.20
2019-01-25T11:50:39.092Z,38.08
2019-01-25T11:53:08.491Z,40.15
2019-01-25T11:55:37.873Z,37.45
2019-01-25T11:58:07.240Z,53.50
2019-01-25T12:00:38.212Z,45.85
2019-01-25T12:03:07.610Z,41.35
2019-01-25T12:05:37.048Z,45.52
2019-01-25T12:08:06.724Z,45.20
2019-01-25T12:10:36.085Z,49.80
2019-01-25T12:13:05.430Z,44.83
2019-01-25T12:15:34.797Z,45.35
2019-01-25T12:18:04.244Z,45.52
2019-01-25T12:20:33.840Z,36.93
2019-01-25T12:23:03.204Z,44.05
2019-01-25T12:25:32.610Z,48.17
2019-01-25T12:28:05.333Z,47.50
2019-01-25T12:30:37.758Z,41.85
2019-01-25T12:33:07.404Z,43.28
2019-01-25T12:35:38.882Z,41.28
2019-01-25T12:38:08.324Z,39.67
2019-01-25T12:40:41.819Z,43.20
2019-01-25T12:43:08.740Z,39.67
2019-01-25T12:45:38.145Z,41.10
2019-01-25T12:48:07.819Z,41.35
2019-01-25T12:51:04.737Z,40.98
2019-01-25T12:53:34.627Z,39.80
2019-01-25T12:56:04.014Z,39.60
2019-01-25T12:58:33.420Z,39.53
2019-01-25T13:01:02.814Z,38.35
2019-01-25T13:03:32.179Z,52.00
2019-01-25T13:06:01.559Z,47.55
2019-01-25T13:08:30.932Z,38.75
2019-01-25T13:11:00.308Z,38.08
2019-01-25T13:13:31.756Z,39.75
2019-01-25T13:16:00.700Z,41.37
2019-01-25T13:18:30.069Z,46.42
2019-01-25T13:20:59.481Z,49.80
2019-01-25T13:23:28.997Z,45.98
2019-01-25T13:25:58.368Z,47.93
2019-01-25T13:28:27.843Z,40.20
2019-01-25T13:30:57.560Z,46.37
2019-01-25T13:33:26.911Z,45.28
2019-01-25T13:35:56.295Z,44.73
2019-01-25T13:38:25.672Z,47.03
2019-01-25T13:40:55.093Z,47.40
2019-01-25T13:43:24.433Z,47.33
2019-01-25T13:45:53.995Z,49.27
2019-01-25T13:48:23.582Z,46.90
2019-01-25T13:50:53.626Z,53.83
2019-01-25T13:53:23.196Z,47.98
2019-01-25T13:55:52.620Z,56.55
2019-01-25T13:58:21.977Z,51.90
2019-01-25T14:00:51.374Z,48.23
2019-01-25T14:03:20.825Z,47.20
2019-01-25T14:05:50.350Z,52.93
2019-01-25T14:08:20.118Z,55.30
2019-01-25T14:10:49.707Z,46.92
2019-01-25T14:13:19.230Z,52.60
2019-01-25T14:15:48.822Z,46.95
2019-01-25T14:18:18.598Z,47.58
2019-01-25T14:20:49.692Z,46.95
2019-01-25T14:23:19.438Z,48.63
2019-01-25T14:25:48.806Z,48.28
2019-01-25T14:28:18.165Z,50.95
2019-01-25T14:30:47.577Z,51.60
2019-01-25T14:33:16.945Z,56.95
2019-01-25T14:35:46.310Z,55.65
2019-01-25T14:38:16.782Z,58.80
2019-01-25T14:40:46.137Z,54.85
2019-01-25T14:43:15.491Z,57.48
2019-01-25T14:45:44.882Z,59.15
2019-01-25T14:48:14.237Z,56.10
2019-01-25T14:50:43.686Z,52.03
2019-01-25T14:53:13.049Z,48.75
2019-01-25T14:55:42.400Z,59.18
2019-01-25T14:58:11.828Z,55.67
2019-01-25T15:00:41.195Z,50.40
2019-01-25T15:03:10.558Z,51.85
2019-01-25T15:05:39.904Z,65.52
2019-01-25T15:08:09.262Z,57.93
2019-01-25T15:10:38.610Z,61.83
2019-01-25T15:13:08.691Z,53.73
2019-01-25T15:15:38.223Z,57.78
2019-01-25T15:18:07.808Z,58.23
2019-01-25T15:20:37.159Z,57.08
2019-01-25T15:23:06.513Z,54.42
2019-01-25T15:25:35.910Z,64.05
2019-01-25T15:28:05.421Z,58.75
2019-01-25T15:30:34.907Z,63.73
2019-01-25T15:33:04.286Z,61.37
2019-01-25T15:35:33.741Z,64.40
2019-01-25T15:38:03.143Z,78.35
2019-01-25T15:40:32.593Z,64.87
2019-01-25T15:43:02.010Z,74.85
2019-01-25T15:45:31.515Z,60.15
2019-01-25T15:48:00.917Z,64.17
2019-01-25T15:50:32.168Z,69.05
2019-01-25T15:53:01.677Z,66.47
2019-01-25T15:55:31.126Z,57.75
2019-01-25T15:58:00.510Z,78.55
2019-01-25T16:00:31.064Z,59.70
2019-01-25T16:03:00.417Z,57.08
2019-01-25T16:05:29.764Z,55.08
2019-01-25T16:07:59.133Z,64.95
2019-01-25T16:10:28.576Z,63.90
2019-01-25T16:12:57.921Z,63.02
2019-01-25T16:15:29.050Z,62.08
2019-01-25T16:17:58.451Z,54.13
2019-01-25T16:20:27.861Z,57.05
2019-01-25T16:22:57.517Z,62.08
2019-01-25T16:25:28.981Z,59.93
2019-01-25T16:27:58.349Z,55.90
2019-01-25T16:30:29.706Z,56.88
2019-01-25T16:32:59.110Z,60.78
2019-01-25T16:35:28.474Z,62.25
2019-01-25T16:37:57.946Z,54.98
2019-01-25T16:40:28.077Z,60.65
2019-01-25T16:42:57.464Z,73.47
2019-01-25T16:45:32.129Z,65.37
2019-01-25T16:48:01.489Z,56.20
2019-01-25T16:50:31.173Z,58.25
2019-01-25T16:53:00.678Z,59.65
2019-01-25T16:55:30.249Z,53.05
2019-01-25T16:57:59.738Z,58.48
2019-01-25T17:00:31.180Z,61.88
2019-01-25T17:03:00.547Z,54.35
2019-01-25T17:05:29.917Z,56.60
2019-01-25T17:07:59.297Z,51.80
2019-01-25T17:10:28.792Z,52.60
2019-01-25T17:12:58.161Z,56.77
2019-01-25T17:15:27.518Z,68.87
2019-01-25T17:17:56.880Z,55.75
2019-01-25T17:20:26.338Z,57.78
2019-01-25T17:22:55.697Z,53.80
2019-01-25T17:25:25.077Z,71.60
2019-01-25T17:27:54.541Z,63.58
2019-01-25T17:30:32.225Z,55.43
2019-01-25T17:33:02.065Z,62.50
2019-01-25T17:35:31.853Z,60.48
2019-01-25T17:38:01.337Z,58.63
2019-01-25T17:40:32.837Z,64.17
2019-01-25T17:43:02.537Z,56.63
2019-01-25T17:45:31.890Z,56.60
2019-01-25T17:48:01.252Z,63.98
2019-01-25T17:50:31.016Z,56.40
2019-01-25T17:53:00.368Z,57.17
2019-01-25T17:55:29.764Z,61.80
2019-01-25T17:57:59.114Z,59.18
2019-01-25T18:00:42.037Z,54.75
2019-01-25T18:03:11.399Z,61.33
2019-01-25T18:05:40.756Z,64.47
2019-01-25T18:08:10.105Z,61.48
2019-01-25T18:10:39.492Z,64.25
2019-01-25T18:13:08.844Z,65.87
2019-01-25T18:15:38.236Z,58.48
2019-01-25T18:18:07.881Z,56.15
2019-01-25T18:20:37.358Z,55.75
2019-01-25T18:23:06.945Z,61.98
2019-01-25T18:25:51.933Z,67.32
2019-01-25T18:28:25.134Z,63.90
2019-01-25T18:31:04.356Z,66.28
2019-01-25T18:33:33.728Z,63.52
2019-01-25T18:36:03.116Z,64.97
2019-01-25T18:38:32.605Z,59.67
2019-01-25T18:41:01.984Z,67.30
2019-01-25T18:43:31.334Z,71.33
2019-01-25T18:46:00.733Z,67.00
2019-01-25T18:48:30.128Z,65.15
2019-01-25T18:50:59.525Z,70.05
2019-01-25T18:53:28.910Z,66.17
2019-01-25T18:55:58.280Z,65.30
2019-01-25T18:58:27.653Z,72.10
2019-01-25T19:00:57.067Z,70.62
2019-01-25T19:03:26.422Z,72.70
2019-01-25T19:05:55.821Z,70.67
2019-01-25T19:08:25.172Z,71.92
2019-01-25T19:10:54.657Z,70.57
2019-01-25T19:13:24.003Z,74.17
2019-01-25T19:15:53.438Z,70.15
2019-01-25T19:18:22.770Z,80.60
2019-01-25T19:20:52.179Z,75.40
2019-01-25T19:23:21.490Z,71.45
2019-01-25T19:25:50.862Z,65.50
2019-01-25T19:28:20.236Z,73.37
2019-01-25T19:30:49.853Z,62.43
2019-01-25T19:33:19.202Z,62.78
2019-01-25T19:35:48.821Z,73.45
2019-01-25T19:38:20.348Z,69.53
2019-01-25T19:40:49.736Z,67.32
2019-01-25T19:43:19.090Z,63.95
2019-01-25T19:45:48.570Z,76.87
2019-01-25T19:48:17.929Z,56.48
2019-01-25T19:50:47.307Z,70.55
2019-01-25T19:53:16.649Z,71.65
2019-01-25T19:55:46.005Z,75.80
2019-01-25T19:58:17.401Z,64.97
2019-01-25T20:00:46.906Z,63.75
2019-01-25T20:03:16.314Z,69.58
2019-01-25T20:05:45.876Z,59.73
2019-01-25T20:08:15.213Z,65.12
2019-01-25T20:10:44.609Z,61.75
2019-01-25T20:13:14.444Z,63.52
2019-01-25T20:15:43.908Z,51.13
2019-01-25T20:18:13.261Z,53.35
2019-01-25T20:20:42.735Z,64.87
2019-01-25T20:23:12.098Z,55.25
2019-01-25T20:25:41.533Z,47.23
2019-01-25T20:28:12.025Z,52.43
2019-01-25T20:30:41.472Z,58.08
2019-01-25T20:37:08.300Z,51.42
2019-01-25T20:39:58.110Z,56.42
2019-01-25T20:42:27.446Z,60.10
2019-01-25T20:44:56.861Z,65.35
2019-01-25T20:47:26.338Z,52.20
2019-01-25T20:49:55.723Z,32.40
2019-01-25T20:52:25.142Z,51.40
2019-01-25T20:54:54.658Z,52.33
2019-01-25T20:57:24.109Z,54.95
2019-01-25T20:59:53.589Z,50.10
2019-01-25T21:02:23.134Z,50.25
2019-01-25T21:04:52.706Z,46.63
2019-01-25T21:07:22.102Z,50.78
2019-01-25T21:09:51.569Z,52.62
2019-01-25T21:12:21.014Z,49.30
2019-01-25T21:14:50.488Z,48.45
2019-01-25T21:17:20.269Z,47.48
2019-01-25T21:19:49.698Z,49.08
2019-01-25T21:22:19.055Z,49.67
2019-01-25T21:24:48.467Z,53.80
2019-01-25T21:27:17.902Z,52.53
2019-01-25T21:29:47.305Z,54.93
2019-01-25T21:32:16.831Z,48.40
2019-01-25T21:34:46.194Z,42.13
2019-01-25T21:37:15.607Z,50.50
2019-01-25T21:39:44.989Z,42.05
2019-01-25T21:42:14.532Z,43.75
2019-01-25T21:44:44.142Z,48.17
2019-01-25T21:47:13.563Z,51.58
2019-01-25T21:49:43.162Z,42.75
2019-01-25T21:52:12.637Z,47.03
2019-01-25T21:54:42.044Z,40.98
2019-01-25T21:57:11.525Z,44.23
2019-01-25T21:59:40.860Z,45.60
2019-01-25T22:02:10.373Z,43.28
2019-01-25T22:04:39.867Z,45.30
2019-01-25T22:07:09.322Z,39.35
2019-01-25T22:09:38.725Z,44.23
2019-01-25T22:12:08.176Z,44.93
2019-01-25T22:14:37.656Z,53.68
2019-01-25T22:17:07.123Z,46.10
2019-01-25T22:19:36.567Z,46.02
2019-01-25T22:22:07.381Z,58.40
2019-01-25T22:24:36.981Z,39.05
2019-01-25T22:27:06.576Z,46.30
2019-01-25T22:29:35.955Z,38.33
2019-01-25T22:32:05.567Z,41.30
2019-01-25T22:34:34.988Z,47.00
2019-01-25T22:37:04.575Z,50.58
2019-01-25T22:39:33.960Z,45.38
2019-01-25T22:42:03.362Z,39.15
2019-01-25T22:44:32.754Z,47.70
2019-01-25T22:47:02.180Z,50.60
2019-01-25T22:49:31.585Z,41.92
2019-01-25T22:52:00.971Z,45.90
2019-01-25T22:54:30.848Z,41.30
2019-01-25T22:57:00.409Z,56.30
2019-01-25T22:59:29.777Z,52.50
2019-01-25T23:01:59.240Z,50.92
2019-01-25T23:05:03.797Z,49.63
2019-01-25T23:07:33.901Z,47.35
2019-01-25T23:10:10.674Z,49.53
2019-01-25T23:12:40.105Z,47.95
2019-01-25T23:15:11.763Z,50.67
2019-01-25T23:17:41.173Z,54.05
2019-01-25T23:22:41.490Z,43.17
2019-01-25T23:25:11.311Z,39.55
2019-01-25T23:27:40.687Z,50.03
2019-01-25T23:30:13.228Z,45.90
2019-01-25T23:32:42.604Z,41.05
2019-01-25T23:35:11.949Z,40.60
2019-01-25T23:37:41.332Z,44.65
2019-01-25T23:40:13.108Z,51.63
2019-01-25T23:42:42.559Z,55.75
2019-01-25T23:45:12.621Z,56.55
2019-01-25T23:47:41.993Z,53.13
2019-01-25T23:50:12.316Z,54.42
2019-01-25T23:52:41.664Z,55.25
2019-01-25T23:55:11.310Z,51.80
2019-01-25T23:57:40.684Z,54.35
